sensor_id;sensor_type;location;lat;lon;timestamp;temperature;humidity
5675;DHT22;2860;54.284;10.158;2022-10-16T00:01:09;11.20;99.90
5675;DHT22;2860;54.284;10.158;2022-10-16T00:03:37;11.10;99.90
5675;DHT22;2860;54.284;10.158;2022-10-16T00:06:03;11.10;99.90
5675;DHT22;2860;54.284;10.158;2022-10-16T00:08:28;11.10;99.90
5675;DHT22;2860;54.284;10.158;2022-10-16T00:11:02;11.00;99.90
5675;DHT22;2860;54.284;10.158;2022-10-16T00:13:29;11.00;99.90
5675;DHT22;2860;54.284;10.158;2022-10-16T00:15:56;11.00;99.90
5675;DHT22;2860;54.284;10.158;2022-10-16T00:18:21;11.00;99.90
5675;DHT22;2860;54.284;10.158;2022-10-16T00:20:47;11.00;99.90
5675;DHT22;2860;54.284;10.158;2022-10-16T00:23:12;11.00;99.90
5675;DHT22;2860;54.284;10.158;2022-10-16T00:25:38;10.90;99.90
5675;DHT22;2860;54.284;10.158;2022-10-16T00:28:04;10.90;99.90
5675;DHT22;2860;54.284;10.158;2022-10-16T00:30:29;10.90;99.90
5675;DHT22;2860;54.284;10.158;2022-10-16T00:32:55;10.80;99.90
5675;DHT22;2860;54.284;10.158;2022-10-16T00:35:21;10.80;99.90
5675;DHT22;2860;54.284;10.158;2022-10-16T00:37:46;10.80;99.90
5675;DHT22;2860;54.284;10.158;2022-10-16T00:40:12;10.80;99.90
5675;DHT22;2860;54.284;10.158;2022-10-16T00:42:38;10.80;99.90
5675;DHT22;2860;54.284;10.158;2022-10-16T00:45:04;10.80;99.90
5675;DHT22;2860;54.284;10.158;2022-10-16T00:47:34;10.70;99.90
5675;DHT22;2860;54.284;10.158;2022-10-16T00:52:30;10.70;99.90
5675;DHT22;2860;54.284;10.158;2022-10-16T00:54:56;10.60;99.90
5675;DHT22;2860;54.284;10.158;2022-10-16T00:57:23;10.60;99.90
5675;DHT22;2860;54.284;10.158;2022-10-16T00:59:49;10.60;99.90
5675;DHT22;2860;54.284;10.158;2022-10-16T01:02:15;10.60;99.90
5675;DHT22;2860;54.284;10.158;2022-10-16T01:04:44;10.60;99.90
5675;DHT22;2860;54.284;10.158;2022-10-16T01:07:36;10.60;99.90
5675;DHT22;2860;54.284;10.158;2022-10-16T01:10:16;10.60;99.90
5675;DHT22;2860;54.284;10.158;2022-10-16T01:12:50;10.60;99.90
5675;DHT22;2860;54.284;10.158;2022-10-16T01:20:31;10.60;99.90
5675;DHT22;2860;54.284;10.158;2022-10-16T01:28:43;10.60;99.90
5675;DHT22;2860;54.284;10.158;2022-10-16T01:31:11;10.60;99.90
5675;DHT22;2860;54.284;10.158;2022-10-16T01:33:46;10.60;99.90
5675;DHT22;2860;54.284;10.158;2022-10-16T01:36:21;10.60;99.90
5675;DHT22;2860;54.284;10.158;2022-10-16T01:38:51;10.60;99.90
5675;DHT22;2860;54.284;10.158;2022-10-16T01:41:23;10.60;99.90
5675;DHT22;2860;54.284;10.158;2022-10-16T01:43:59;10.70;99.90
5675;DHT22;2860;54.284;10.158;2022-10-16T01:46:28;10.70;99.90
5675;DHT22;2860;54.284;10.158;2022-10-16T01:48:56;10.70;99.90
5675;DHT22;2860;54.284;10.158;2022-10-16T01:51:23;10.70;99.90
5675;DHT22;2860;54.284;10.158;2022-10-16T01:53:53;10.80;99.90
5675;DHT22;2860;54.284;10.158;2022-10-16T01:56:20;10.80;99.90
5675;DHT22;2860;54.284;10.158;2022-10-16T01:58:55;10.80;99.90
5675;DHT22;2860;54.284;10.158;2022-10-16T02:01:23;10.80;99.90
5675;DHT22;2860;54.284;10.158;2022-10-16T02:03:53;10.80;99.90
5675;DHT22;2860;54.284;10.158;2022-10-16T02:06:19;10.80;99.90
5675;DHT22;2860;54.284;10.158;2022-10-16T02:08:45;10.80;99.90
5675;DHT22;2860;54.284;10.158;2022-10-16T02:11:11;10.80;99.90
5675;DHT22;2860;54.284;10.158;2022-10-16T02:13:45;10.80;99.90
5675;DHT22;2860;54.284;10.158;2022-10-16T02:16:12;10.80;99.90
5675;DHT22;2860;54.284;10.158;2022-10-16T02:18:39;10.80;99.90
5675;DHT22;2860;54.284;10.158;2022-10-16T02:21:16;10.80;99.90
5675;DHT22;2860;54.284;10.158;2022-10-16T02:23:57;10.70;99.90
5675;DHT22;2860;54.284;10.158;2022-10-16T02:29:24;10.70;99.90
5675;DHT22;2860;54.284;10.158;2022-10-16T02:31:53;10.70;99.90
5675;DHT22;2860;54.284;10.158;2022-10-16T02:34:21;10.70;99.90
5675;DHT22;2860;54.284;10.158;2022-10-16T02:36:50;10.70;99.90
5675;DHT22;2860;54.284;10.158;2022-10-16T02:39:16;10.70;99.90
5675;DHT22;2860;54.284;10.158;2022-10-16T02:41:43;10.70;99.90
5675;DHT22;2860;54.284;10.158;2022-10-16T02:44:09;10.70;99.90
5675;DHT22;2860;54.284;10.158;2022-10-16T02:46:34;10.70;99.90
5675;DHT22;2860;54.284;10.158;2022-10-16T02:48:59;10.70;99.90
5675;DHT22;2860;54.284;10.158;2022-10-16T02:51:25;10.70;99.90
5675;DHT22;2860;54.284;10.158;2022-10-16T02:53:51;10.70;99.90
5675;DHT22;2860;54.284;10.158;2022-10-16T02:56:16;10.70;99.90
5675;DHT22;2860;54.284;10.158;2022-10-16T02:58:42;10.70;99.90
5675;DHT22;2860;54.284;10.158;2022-10-16T03:01:07;10.70;99.90
5675;DHT22;2860;54.284;10.158;2022-10-16T03:03:33;10.70;99.90
5675;DHT22;2860;54.284;10.158;2022-10-16T03:05:58;10.60;99.90
5675;DHT22;2860;54.284;10.158;2022-10-16T03:08:24;10.60;99.90
5675;DHT22;2860;54.284;10.158;2022-10-16T03:10:51;10.50;99.90
5675;DHT22;2860;54.284;10.158;2022-10-16T03:13:16;10.50;99.90
5675;DHT22;2860;54.284;10.158;2022-10-16T03:15:43;10.40;99.90
5675;DHT22;2860;54.284;10.158;2022-10-16T03:18:08;10.40;99.90
5675;DHT22;2860;54.284;10.158;2022-10-16T03:20:34;10.40;99.90
5675;DHT22;2860;54.284;10.158;2022-10-16T03:23:00;10.30;99.90
5675;DHT22;2860;54.284;10.158;2022-10-16T03:25:25;10.30;99.90
5675;DHT22;2860;54.284;10.158;2022-10-16T03:27:51;10.30;99.90
5675;DHT22;2860;54.284;10.158;2022-10-16T03:30:16;10.30;99.90
5675;DHT22;2860;54.284;10.158;2022-10-16T03:32:43;10.20;99.90
5675;DHT22;2860;54.284;10.158;2022-10-16T03:35:09;10.20;99.90
5675;DHT22;2860;54.284;10.158;2022-10-16T03:37:35;10.10;99.90
5675;DHT22;2860;54.284;10.158;2022-10-16T03:40:01;10.10;99.90
5675;DHT22;2860;54.284;10.158;2022-10-16T03:42:26;10.10;99.90
5675;DHT22;2860;54.284;10.158;2022-10-16T03:44:52;10.10;99.90
5675;DHT22;2860;54.284;10.158;2022-10-16T03:47:17;10.00;99.90
5675;DHT22;2860;54.284;10.158;2022-10-16T03:49:47;10.00;99.90
5675;DHT22;2860;54.284;10.158;2022-10-16T03:52:13;10.00;99.90
5675;DHT22;2860;54.284;10.158;2022-10-16T03:54:38;9.90;99.90
5675;DHT22;2860;54.284;10.158;2022-10-16T03:57:04;9.90;99.90
5675;DHT22;2860;54.284;10.158;2022-10-16T03:59:29;9.90;99.90
5675;DHT22;2860;54.284;10.158;2022-10-16T04:01:55;9.90;99.90
5675;DHT22;2860;54.284;10.158;2022-10-16T04:04:20;9.90;99.90
5675;DHT22;2860;54.284;10.158;2022-10-16T04:06:46;9.90;99.90
5675;DHT22;2860;54.284;10.158;2022-10-16T04:09:11;9.90;99.90
5675;DHT22;2860;54.284;10.158;2022-10-16T04:11:37;9.90;99.90
5675;DHT22;2860;54.284;10.158;2022-10-16T04:14:02;9.90;99.90
5675;DHT22;2860;54.284;10.158;2022-10-16T04:16:28;9.90;99.90
5675;DHT22;2860;54.284;10.158;2022-10-16T04:18:53;9.90;99.90
5675;DHT22;2860;54.284;10.158;2022-10-16T04:21:19;9.90;99.90
5675;DHT22;2860;54.284;10.158;2022-10-16T04:23:44;9.90;99.90
5675;DHT22;2860;54.284;10.158;2022-10-16T04:26:10;9.90;99.90
5675;DHT22;2860;54.284;10.158;2022-10-16T04:28:36;9.90;99.90
5675;DHT22;2860;54.284;10.158;2022-10-16T04:31:04;9.80;99.90
5675;DHT22;2860;54.284;10.158;2022-10-16T04:33:29;9.80;99.90
5675;DHT22;2860;54.284;10.158;2022-10-16T04:35:59;9.80;99.90
5675;DHT22;2860;54.284;10.158;2022-10-16T04:38:25;9.80;99.90
5675;DHT22;2860;54.284;10.158;2022-10-16T04:40:52;9.90;99.90
5675;DHT22;2860;54.284;10.158;2022-10-16T04:43:17;9.90;99.90
5675;DHT22;2860;54.284;10.158;2022-10-16T04:45:43;9.90;99.90
5675;DHT22;2860;54.284;10.158;2022-10-16T04:48:09;10.00;99.90
5675;DHT22;2860;54.284;10.158;2022-10-16T04:50:34;10.10;99.90
5675;DHT22;2860;54.284;10.158;2022-10-16T04:53:00;10.10;99.90
5675;DHT22;2860;54.284;10.158;2022-10-16T04:55:25;10.20;99.90
5675;DHT22;2860;54.284;10.158;2022-10-16T04:57:51;10.20;99.90
5675;DHT22;2860;54.284;10.158;2022-10-16T05:00:16;10.30;99.90
5675;DHT22;2860;54.284;10.158;2022-10-16T05:02:42;10.30;99.90
5675;DHT22;2860;54.284;10.158;2022-10-16T05:05:08;10.40;99.90
5675;DHT22;2860;54.284;10.158;2022-10-16T05:07:33;10.40;99.90
5675;DHT22;2860;54.284;10.158;2022-10-16T05:09:59;10.40;99.90
5675;DHT22;2860;54.284;10.158;2022-10-16T05:12:24;10.40;99.90
5675;DHT22;2860;54.284;10.158;2022-10-16T05:14:50;10.40;99.90
5675;DHT22;2860;54.284;10.158;2022-10-16T05:17:15;10.50;99.90
5675;DHT22;2860;54.284;10.158;2022-10-16T05:19:41;10.50;99.90
5675;DHT22;2860;54.284;10.158;2022-10-16T05:22:06;10.40;99.90
5675;DHT22;2860;54.284;10.158;2022-10-16T05:24:32;10.50;99.90
5675;DHT22;2860;54.284;10.158;2022-10-16T05:26:57;10.50;99.90
5675;DHT22;2860;54.284;10.158;2022-10-16T05:29:23;10.50;99.90
5675;DHT22;2860;54.284;10.158;2022-10-16T05:31:52;10.50;99.90
5675;DHT22;2860;54.284;10.158;2022-10-16T05:34:19;10.50;99.90
5675;DHT22;2860;54.284;10.158;2022-10-16T05:36:45;10.50;99.90
5675;DHT22;2860;54.284;10.158;2022-10-16T05:39:11;10.50;99.90
5675;DHT22;2860;54.284;10.158;2022-10-16T05:41:36;10.50;99.90
5675;DHT22;2860;54.284;10.158;2022-10-16T05:44:05;10.40;99.90
5675;DHT22;2860;54.284;10.158;2022-10-16T05:46:31;10.50;99.90
5675;DHT22;2860;54.284;10.158;2022-10-16T05:48:57;10.50;99.90
5675;DHT22;2860;54.284;10.158;2022-10-16T05:51:22;10.50;99.90
5675;DHT22;2860;54.284;10.158;2022-10-16T05:53:48;10.50;99.90
5675;DHT22;2860;54.284;10.158;2022-10-16T05:56:13;10.50;99.90
5675;DHT22;2860;54.284;10.158;2022-10-16T05:58:39;10.50;99.90
5675;DHT22;2860;54.284;10.158;2022-10-16T06:01:12;10.50;99.90
5675;DHT22;2860;54.284;10.158;2022-10-16T06:03:38;10.60;99.90
5675;DHT22;2860;54.284;10.158;2022-10-16T06:06:08;10.60;99.90
5675;DHT22;2860;54.284;10.158;2022-10-16T06:08:34;10.60;99.90
5675;DHT22;2860;54.284;10.158;2022-10-16T06:11:05;10.60;99.90
5675;DHT22;2860;54.284;10.158;2022-10-16T06:13:31;10.60;99.90
5675;DHT22;2860;54.284;10.158;2022-10-16T06:15:58;10.70;99.90
5675;DHT22;2860;54.284;10.158;2022-10-16T06:18:25;10.70;99.90
5675;DHT22;2860;54.284;10.158;2022-10-16T06:20:51;10.70;99.90
5675;DHT22;2860;54.284;10.158;2022-10-16T06:23:16;10.80;99.90
5675;DHT22;2860;54.284;10.158;2022-10-16T06:25:42;10.80;99.90
5675;DHT22;2860;54.284;10.158;2022-10-16T06:28:07;10.80;99.90
5675;DHT22;2860;54.284;10.158;2022-10-16T06:30:32;10.80;99.90
5675;DHT22;2860;54.284;10.158;2022-10-16T06:32:58;10.80;99.90
5675;DHT22;2860;54.284;10.158;2022-10-16T06:35:23;10.90;99.90
5675;DHT22;2860;54.284;10.158;2022-10-16T06:37:49;10.90;99.90
5675;DHT22;2860;54.284;10.158;2022-10-16T06:40:15;10.90;99.90
5675;DHT22;2860;54.284;10.158;2022-10-16T06:42:41;11.00;99.90
5675;DHT22;2860;54.284;10.158;2022-10-16T06:45:07;11.00;99.90
5675;DHT22;2860;54.284;10.158;2022-10-16T06:47:32;11.10;99.90
5675;DHT22;2860;54.284;10.158;2022-10-16T06:49:58;11.20;99.90
5675;DHT22;2860;54.284;10.158;2022-10-16T06:52:24;11.20;99.90
5675;DHT22;2860;54.284;10.158;2022-10-16T06:54:49;11.30;99.90
5675;DHT22;2860;54.284;10.158;2022-10-16T06:57:15;11.30;99.90
5675;DHT22;2860;54.284;10.158;2022-10-16T06:59:41;11.30;99.90
5675;DHT22;2860;54.284;10.158;2022-10-16T07:02:07;11.30;99.90
5675;DHT22;2860;54.284;10.158;2022-10-16T07:04:33;11.30;99.90
5675;DHT22;2860;54.284;10.158;2022-10-16T07:07:00;11.30;99.90
5675;DHT22;2860;54.284;10.158;2022-10-16T07:09:26;11.30;99.90
5675;DHT22;2860;54.284;10.158;2022-10-16T07:11:51;11.40;99.90
5675;DHT22;2860;54.284;10.158;2022-10-16T07:14:18;11.40;99.90
5675;DHT22;2860;54.284;10.158;2022-10-16T07:16:44;11.50;99.90
5675;DHT22;2860;54.284;10.158;2022-10-16T07:19:10;11.50;99.90
5675;DHT22;2860;54.284;10.158;2022-10-16T07:21:37;11.60;99.90
5675;DHT22;2860;54.284;10.158;2022-10-16T07:24:05;11.70;99.90
5675;DHT22;2860;54.284;10.158;2022-10-16T07:26:33;11.80;99.90
5675;DHT22;2860;54.284;10.158;2022-10-16T07:28:59;12.00;99.90
5675;DHT22;2860;54.284;10.158;2022-10-16T07:31:24;12.10;99.90
5675;DHT22;2860;54.284;10.158;2022-10-16T07:33:51;12.20;99.90
5675;DHT22;2860;54.284;10.158;2022-10-16T07:36:18;12.20;99.90
5675;DHT22;2860;54.284;10.158;2022-10-16T07:38:46;12.20;99.90
5675;DHT22;2860;54.284;10.158;2022-10-16T07:41:13;12.20;99.90
5675;DHT22;2860;54.284;10.158;2022-10-16T07:43:39;12.20;99.90
5675;DHT22;2860;54.284;10.158;2022-10-16T07:46:05;12.30;99.90
5675;DHT22;2860;54.284;10.158;2022-10-16T07:48:33;12.20;99.90
5675;DHT22;2860;54.284;10.158;2022-10-16T07:51:00;12.20;99.90
5675;DHT22;2860;54.284;10.158;2022-10-16T07:53:26;12.10;99.90
5675;DHT22;2860;54.284;10.158;2022-10-16T07:55:54;12.20;99.90
5675;DHT22;2860;54.284;10.158;2022-10-16T07:58:21;12.20;99.90
5675;DHT22;2860;54.284;10.158;2022-10-16T08:00:47;12.30;99.90
5675;DHT22;2860;54.284;10.158;2022-10-16T08:03:12;12.30;99.90
5675;DHT22;2860;54.284;10.158;2022-10-16T08:05:38;12.40;99.90
5675;DHT22;2860;54.284;10.158;2022-10-16T08:08:03;12.50;99.90
5675;DHT22;2860;54.284;10.158;2022-10-16T08:10:29;12.50;99.90
5675;DHT22;2860;54.284;10.158;2022-10-16T08:12:54;12.50;99.90
5675;DHT22;2860;54.284;10.158;2022-10-16T08:15:20;12.50;99.90
5675;DHT22;2860;54.284;10.158;2022-10-16T08:17:57;12.50;99.90
5675;DHT22;2860;54.284;10.158;2022-10-16T08:20:24;12.50;99.90
5675;DHT22;2860;54.284;10.158;2022-10-16T08:22:49;12.60;99.90
5675;DHT22;2860;54.284;10.158;2022-10-16T08:25:15;12.70;99.90
5675;DHT22;2860;54.284;10.158;2022-10-16T08:27:40;12.70;99.90
5675;DHT22;2860;54.284;10.158;2022-10-16T08:30:06;12.80;99.90
5675;DHT22;2860;54.284;10.158;2022-10-16T08:32:32;12.90;99.90
5675;DHT22;2860;54.284;10.158;2022-10-16T08:34:58;13.00;99.90
5675;DHT22;2860;54.284;10.158;2022-10-16T08:37:23;13.00;99.90
5675;DHT22;2860;54.284;10.158;2022-10-16T08:39:49;13.10;99.90
5675;DHT22;2860;54.284;10.158;2022-10-16T08:42:32;13.20;99.90
5675;DHT22;2860;54.284;10.158;2022-10-16T08:45:15;13.30;99.90
5675;DHT22;2860;54.284;10.158;2022-10-16T08:50:36;13.70;99.90
5675;DHT22;2860;54.284;10.158;2022-10-16T08:53:04;14.10;99.90
5675;DHT22;2860;54.284;10.158;2022-10-16T08:55:46;14.60;99.90
5675;DHT22;2860;54.284;10.158;2022-10-16T08:58:14;15.20;99.90
5675;DHT22;2860;54.284;10.158;2022-10-16T09:00:40;15.70;99.90
5675;DHT22;2860;54.284;10.158;2022-10-16T09:03:44;16.00;99.90
5675;DHT22;2860;54.284;10.158;2022-10-16T09:06:42;16.00;99.90
5675;DHT22;2860;54.284;10.158;2022-10-16T09:12:19;15.50;99.90
5675;DHT22;2860;54.284;10.158;2022-10-16T09:15:13;15.30;99.90
5675;DHT22;2860;54.284;10.158;2022-10-16T09:20:34;15.00;99.90
5675;DHT22;2860;54.284;10.158;2022-10-16T09:25:29;14.80;99.90
5675;DHT22;2860;54.284;10.158;2022-10-16T09:27:54;14.80;99.90
5675;DHT22;2860;54.284;10.158;2022-10-16T09:30:29;14.70;99.90
5675;DHT22;2860;54.284;10.158;2022-10-16T09:32:57;14.80;99.90
5675;DHT22;2860;54.284;10.158;2022-10-16T09:37:56;14.80;99.90
5675;DHT22;2860;54.284;10.158;2022-10-16T09:40:26;14.90;99.90
5675;DHT22;2860;54.284;10.158;2022-10-16T09:43:03;14.90;99.90
5675;DHT22;2860;54.284;10.158;2022-10-16T09:45:31;15.00;99.90
5675;DHT22;2860;54.284;10.158;2022-10-16T09:47:58;15.00;99.90
5675;DHT22;2860;54.284;10.158;2022-10-16T09:50:28;15.00;99.90
5675;DHT22;2860;54.284;10.158;2022-10-16T09:53:04;15.00;99.90
5675;DHT22;2860;54.284;10.158;2022-10-16T09:55:30;15.00;99.90
5675;DHT22;2860;54.284;10.158;2022-10-16T09:57:56;15.00;99.90
5675;DHT22;2860;54.284;10.158;2022-10-16T10:00:23;15.10;99.90
5675;DHT22;2860;54.284;10.158;2022-10-16T10:02:49;15.20;99.90
5675;DHT22;2860;54.284;10.158;2022-10-16T10:05:26;15.30;99.90
5675;DHT22;2860;54.284;10.158;2022-10-16T10:08:03;15.40;99.90
5675;DHT22;2860;54.284;10.158;2022-10-16T10:10:39;15.50;99.90
5675;DHT22;2860;54.284;10.158;2022-10-16T10:13:20;15.50;99.90
5675;DHT22;2860;54.284;10.158;2022-10-16T10:15:46;15.50;99.90
5675;DHT22;2860;54.284;10.158;2022-10-16T10:18:19;15.40;99.90
5675;DHT22;2860;54.284;10.158;2022-10-16T10:20:57;15.40;99.90
5675;DHT22;2860;54.284;10.158;2022-10-16T10:23:25;15.40;99.90
5675;DHT22;2860;54.284;10.158;2022-10-16T10:32:37;16.00;99.90
5675;DHT22;2860;54.284;10.158;2022-10-16T10:34:51;16.20;99.90
5675;DHT22;2860;54.284;10.158;2022-10-16T10:40:36;16.10;99.90
5675;DHT22;2860;54.284;10.158;2022-10-16T10:45:57;16.20;99.90
5675;DHT22;2860;54.284;10.158;2022-10-16T10:51:05;16.20;99.90
5675;DHT22;2860;54.284;10.158;2022-10-16T10:56:59;16.00;99.90
5675;DHT22;2860;54.284;10.158;2022-10-16T10:59:57;15.90;99.90
5675;DHT22;2860;54.284;10.158;2022-10-16T11:02:35;15.80;99.90
5675;DHT22;2860;54.284;10.158;2022-10-16T11:05:42;15.70;99.90
5675;DHT22;2860;54.284;10.158;2022-10-16T11:08:27;15.60;99.90
5675;DHT22;2860;54.284;10.158;2022-10-16T11:11:04;15.50;99.90
5675;DHT22;2860;54.284;10.158;2022-10-16T11:16:17;15.40;99.90
5675;DHT22;2860;54.284;10.158;2022-10-16T11:18:50;15.50;99.90
5675;DHT22;2860;54.284;10.158;2022-10-16T11:21:20;15.50;99.90
5675;DHT22;2860;54.284;10.158;2022-10-16T11:23:56;15.60;99.90
5675;DHT22;2860;54.284;10.158;2022-10-16T11:26:28;15.60;99.90
5675;DHT22;2860;54.284;10.158;2022-10-16T11:28:56;15.60;99.90
5675;DHT22;2860;54.284;10.158;2022-10-16T11:31:34;15.70;99.90
5675;DHT22;2860;54.284;10.158;2022-10-16T11:34:25;15.70;99.90
5675;DHT22;2860;54.284;10.158;2022-10-16T11:39:27;15.50;99.90
5675;DHT22;2860;54.284;10.158;2022-10-16T11:42:02;15.50;99.90
5675;DHT22;2860;54.284;10.158;2022-10-16T11:44:44;15.40;99.90
5675;DHT22;2860;54.284;10.158;2022-10-16T11:47:23;15.30;99.90
5675;DHT22;2860;54.284;10.158;2022-10-16T11:49:55;15.30;99.90
5675;DHT22;2860;54.284;10.158;2022-10-16T11:52:31;15.30;99.90
5675;DHT22;2860;54.284;10.158;2022-10-16T11:55:18;15.30;99.90
5675;DHT22;2860;54.284;10.158;2022-10-16T11:58:03;15.40;99.90
5675;DHT22;2860;54.284;10.158;2022-10-16T12:04:01;15.40;99.90
5675;DHT22;2860;54.284;10.158;2022-10-16T12:06:34;15.40;99.90
5675;DHT22;2860;54.284;10.158;2022-10-16T12:09:01;15.50;99.90
5675;DHT22;2860;54.284;10.158;2022-10-16T12:14:19;15.60;99.90
5675;DHT22;2860;54.284;10.158;2022-10-16T12:19:20;15.60;99.90
5675;DHT22;2860;54.284;10.158;2022-10-16T12:21:46;15.50;99.90
5675;DHT22;2860;54.284;10.158;2022-10-16T12:24:34;15.50;99.90
5675;DHT22;2860;54.284;10.158;2022-10-16T12:27:01;15.60;99.90
5675;DHT22;2860;54.284;10.158;2022-10-16T12:29:38;15.60;99.90
5675;DHT22;2860;54.284;10.158;2022-10-16T12:32:19;15.70;99.90
5675;DHT22;2860;54.284;10.158;2022-10-16T12:34:48;15.70;99.90
5675;DHT22;2860;54.284;10.158;2022-10-16T12:37:41;15.50;99.90
5675;DHT22;2860;54.284;10.158;2022-10-16T12:40:26;15.40;99.90
5675;DHT22;2860;54.284;10.158;2022-10-16T12:42:52;15.40;99.90
5675;DHT22;2860;54.284;10.158;2022-10-16T12:45:33;15.40;99.90
5675;DHT22;2860;54.284;10.158;2022-10-16T12:48:01;15.40;99.90
5675;DHT22;2860;54.284;10.158;2022-10-16T12:50:36;15.30;99.90
5675;DHT22;2860;54.284;10.158;2022-10-16T12:53:04;15.30;99.90
5675;DHT22;2860;54.284;10.158;2022-10-16T12:58:47;15.40;99.90
5675;DHT22;2860;54.284;10.158;2022-10-16T13:01:26;15.50;99.90
5675;DHT22;2860;54.284;10.158;2022-10-16T13:04:10;15.50;99.90
5675;DHT22;2860;54.284;10.158;2022-10-16T13:06:51;15.50;99.90
5675;DHT22;2860;54.284;10.158;2022-10-16T13:09:40;15.40;99.90
5675;DHT22;2860;54.284;10.158;2022-10-16T13:12:15;15.30;99.90
5675;DHT22;2860;54.284;10.158;2022-10-16T13:15:00;15.30;99.90
5675;DHT22;2860;54.284;10.158;2022-10-16T13:17:41;15.20;99.90
5675;DHT22;2860;54.284;10.158;2022-10-16T13:20:14;15.10;99.90
5675;DHT22;2860;54.284;10.158;2022-10-16T13:25:37;14.90;99.90
5675;DHT22;2860;54.284;10.158;2022-10-16T13:28:10;14.90;99.90
5675;DHT22;2860;54.284;10.158;2022-10-16T13:30:53;14.90;99.90
5675;DHT22;2860;54.284;10.158;2022-10-16T13:33:40;14.90;99.90
5675;DHT22;2860;54.284;10.158;2022-10-16T13:36:22;14.90;99.90
5675;DHT22;2860;54.284;10.158;2022-10-16T13:38:48;14.80;99.90
5675;DHT22;2860;54.284;10.158;2022-10-16T13:41:16;14.90;99.90
5675;DHT22;2860;54.284;10.158;2022-10-16T13:43:52;15.00;99.90
5675;DHT22;2860;54.284;10.158;2022-10-16T13:46:21;15.00;99.90
5675;DHT22;2860;54.284;10.158;2022-10-16T13:49:05;15.00;99.90
5675;DHT22;2860;54.284;10.158;2022-10-16T13:51:32;15.00;99.90
5675;DHT22;2860;54.284;10.158;2022-10-16T13:53:58;15.00;99.90
5675;DHT22;2860;54.284;10.158;2022-10-16T13:56:29;15.00;99.90
5675;DHT22;2860;54.284;10.158;2022-10-16T13:59:00;14.90;99.90
5675;DHT22;2860;54.284;10.158;2022-10-16T14:01:34;14.90;99.90
5675;DHT22;2860;54.284;10.158;2022-10-16T14:04:03;14.80;99.90
5675;DHT22;2860;54.284;10.158;2022-10-16T14:06:31;14.90;99.90
5675;DHT22;2860;54.284;10.158;2022-10-16T14:09:08;14.90;99.90
5675;DHT22;2860;54.284;10.158;2022-10-16T14:11:45;14.90;99.90
5675;DHT22;2860;54.284;10.158;2022-10-16T14:14:12;15.00;99.90
5675;DHT22;2860;54.284;10.158;2022-10-16T14:16:40;15.10;99.90
5675;DHT22;2860;54.284;10.158;2022-10-16T14:19:21;15.10;99.90
5675;DHT22;2860;54.284;10.158;2022-10-16T14:21:48;15.10;99.90
5675;DHT22;2860;54.284;10.158;2022-10-16T14:24:25;15.10;99.90
5675;DHT22;2860;54.284;10.158;2022-10-16T14:26:51;15.10;99.90
5675;DHT22;2860;54.284;10.158;2022-10-16T14:29:20;15.20;99.90
5675;DHT22;2860;54.284;10.158;2022-10-16T14:31:57;15.10;99.90
5675;DHT22;2860;54.284;10.158;2022-10-16T14:34:29;15.00;99.90
5675;DHT22;2860;54.284;10.158;2022-10-16T14:36:55;14.90;99.90
5675;DHT22;2860;54.284;10.158;2022-10-16T14:39:23;14.80;99.90
5675;DHT22;2860;54.284;10.158;2022-10-16T14:41:51;14.80;99.90
5675;DHT22;2860;54.284;10.158;2022-10-16T14:44:18;14.60;99.90
5675;DHT22;2860;54.284;10.158;2022-10-16T14:46:45;14.50;99.90
5675;DHT22;2860;54.284;10.158;2022-10-16T14:51:41;14.40;99.90
5675;DHT22;2860;54.284;10.158;2022-10-16T14:54:12;14.30;99.90
5675;DHT22;2860;54.284;10.158;2022-10-16T14:56:50;14.30;99.90
5675;DHT22;2860;54.284;10.158;2022-10-16T15:01:45;14.20;99.90
5675;DHT22;2860;54.284;10.158;2022-10-16T15:04:11;14.10;99.90
5675;DHT22;2860;54.284;10.158;2022-10-16T15:06:37;14.10;99.90
5675;DHT22;2860;54.284;10.158;2022-10-16T15:09:03;14.10;99.90
5675;DHT22;2860;54.284;10.158;2022-10-16T15:11:29;14.20;99.90
5675;DHT22;2860;54.284;10.158;2022-10-16T15:13:56;14.20;99.90
5675;DHT22;2860;54.284;10.158;2022-10-16T15:16:22;14.30;99.90
5675;DHT22;2860;54.284;10.158;2022-10-16T15:18:47;14.30;99.90
5675;DHT22;2860;54.284;10.158;2022-10-16T15:21:33;14.40;99.90
5675;DHT22;2860;54.284;10.158;2022-10-16T15:23:59;14.40;99.90
5675;DHT22;2860;54.284;10.158;2022-10-16T15:26:27;14.40;99.90
5675;DHT22;2860;54.284;10.158;2022-10-16T15:28:53;14.40;99.90
5675;DHT22;2860;54.284;10.158;2022-10-16T15:31:19;14.30;99.90
5675;DHT22;2860;54.284;10.158;2022-10-16T15:33:45;14.30;99.90
5675;DHT22;2860;54.284;10.158;2022-10-16T15:36:16;14.20;99.90
5675;DHT22;2860;54.284;10.158;2022-10-16T15:38:42;14.10;99.90
5675;DHT22;2860;54.284;10.158;2022-10-16T15:41:07;14.00;99.90
5675;DHT22;2860;54.284;10.158;2022-10-16T15:43:33;14.00;99.90
5675;DHT22;2860;54.284;10.158;2022-10-16T15:46:02;13.90;99.90
5675;DHT22;2860;54.284;10.158;2022-10-16T15:48:29;13.90;99.90
5675;DHT22;2860;54.284;10.158;2022-10-16T15:50:55;13.80;99.90
5675;DHT22;2860;54.284;10.158;2022-10-16T15:53:20;13.70;99.90
5675;DHT22;2860;54.284;10.158;2022-10-16T15:55:46;13.70;99.90
5675;DHT22;2860;54.284;10.158;2022-10-16T15:58:11;13.60;99.90
5675;DHT22;2860;54.284;10.158;2022-10-16T16:00:37;13.60;99.90
5675;DHT22;2860;54.284;10.158;2022-10-16T16:03:03;13.50;99.90
5675;DHT22;2860;54.284;10.158;2022-10-16T16:05:29;13.40;99.90
5675;DHT22;2860;54.284;10.158;2022-10-16T16:07:54;13.30;99.90
5675;DHT22;2860;54.284;10.158;2022-10-16T16:10:20;13.20;99.90
5675;DHT22;2860;54.284;10.158;2022-10-16T16:12:47;13.10;99.90
5675;DHT22;2860;54.284;10.158;2022-10-16T16:15:17;13.10;99.90
5675;DHT22;2860;54.284;10.158;2022-10-16T16:17:43;13.00;99.90
5675;DHT22;2860;54.284;10.158;2022-10-16T16:20:10;12.90;99.90
5675;DHT22;2860;54.284;10.158;2022-10-16T16:22:36;12.80;99.90
5675;DHT22;2860;54.284;10.158;2022-10-16T16:25:01;12.70;99.90
5675;DHT22;2860;54.284;10.158;2022-10-16T16:27:27;12.50;99.90
5675;DHT22;2860;54.284;10.158;2022-10-16T16:29:55;12.50;99.90
5675;DHT22;2860;54.284;10.158;2022-10-16T16:32:20;12.40;99.90
5675;DHT22;2860;54.284;10.158;2022-10-16T16:34:46;12.40;99.90
5675;DHT22;2860;54.284;10.158;2022-10-16T16:37:12;12.30;99.90
5675;DHT22;2860;54.284;10.158;2022-10-16T16:39:37;12.30;99.90
5675;DHT22;2860;54.284;10.158;2022-10-16T16:42:03;12.30;99.90
5675;DHT22;2860;54.284;10.158;2022-10-16T16:44:29;12.20;99.90
5675;DHT22;2860;54.284;10.158;2022-10-16T16:46:55;12.20;99.90
5675;DHT22;2860;54.284;10.158;2022-10-16T16:49:20;12.10;99.90
5675;DHT22;2860;54.284;10.158;2022-10-16T16:51:46;12.00;99.90
5675;DHT22;2860;54.284;10.158;2022-10-16T16:54:11;11.90;99.90
5675;DHT22;2860;54.284;10.158;2022-10-16T16:56:38;11.80;99.90
5675;DHT22;2860;54.284;10.158;2022-10-16T16:59:04;11.70;99.90
5675;DHT22;2860;54.284;10.158;2022-10-16T17:01:30;11.60;99.90
5675;DHT22;2860;54.284;10.158;2022-10-16T17:03:57;11.50;99.90
5675;DHT22;2860;54.284;10.158;2022-10-16T17:06:25;11.40;99.90
5675;DHT22;2860;54.284;10.158;2022-10-16T17:08:51;11.40;99.90
5675;DHT22;2860;54.284;10.158;2022-10-16T17:11:22;11.30;99.90
5675;DHT22;2860;54.284;10.158;2022-10-16T17:13:48;11.20;99.90